createdAt,value
2023-03-24T06:47:06.158Z,2.65
2023-03-24T06:49:37.096Z,2.90
2023-03-24T06:56:43.671Z,3.50
2023-03-24T07:02:10.261Z,2.70
2023-03-24T07:04:41.644Z,2.55
2023-03-24T07:07:53.302Z,2.83
2023-03-24T07:10:28.417Z,2.65
2023-03-24T07:12:56.000Z,2.05
2023-03-24T07:15:23.649Z,2.30
2023-03-24T07:17:52.799Z,2.15
2023-03-24T07:20:30.597Z,3.08
2023-03-24T07:23:11.187Z,1.90
2023-03-24T07:25:57.158Z,2.60
2023-03-24T07:28:44.648Z,2.63
2023-03-24T07:31:12.431Z,2.25
2023-03-24T07:33:43.010Z,2.80
2023-03-24T07:36:10.763Z,2.70
2023-03-24T07:38:40.350Z,2.53
2023-03-24T07:41:12.497Z,1.88
2023-03-24T07:46:33.960Z,2.22
2023-03-24T07:49:16.131Z,1.77
2023-03-24T07:51:51.397Z,2.08
2023-03-24T07:54:24.954Z,2.60
2023-03-24T07:56:53.901Z,2.60
2023-03-24T07:59:21.527Z,2.65
2023-03-24T08:01:56.722Z,3.15
2023-03-24T08:04:59.868Z,2.28
2023-03-24T08:07:53.504Z,2.45
2023-03-24T08:10:23.288Z,2.35
2023-03-24T08:12:51.367Z,2.67
2023-03-24T08:15:19.260Z,3.03
2023-03-24T08:17:48.598Z,3.20
2023-03-24T08:20:19.035Z,2.60
2023-03-24T08:22:50.078Z,3.20
2023-03-24T08:25:19.792Z,2.30
2023-03-24T08:27:47.768Z,2.70
2023-03-24T08:30:17.586Z,2.35
2023-03-24T08:32:46.357Z,2.13
2023-03-24T08:35:15.022Z,2.65
2023-03-24T08:37:45.318Z,1.63
2023-03-24T08:40:14.694Z,1.35
2023-03-24T08:42:42.556Z,4.32
2023-03-24T08:45:12.791Z,1.33
2023-03-24T08:47:40.632Z,2.53
2023-03-24T08:50:10.039Z,1.95
2023-03-24T08:52:37.600Z,2.15
2023-03-24T08:55:07.647Z,1.90
2023-03-24T08:57:35.245Z,2.22
2023-03-24T09:00:08.836Z,1.83
2023-03-24T09:02:36.411Z,1.90
2023-03-24T09:05:04.273Z,1.60
2023-03-24T09:07:31.879Z,1.10
2023-03-24T09:09:59.355Z,1.20
2023-03-24T09:12:28.477Z,1.30
2023-03-24T09:14:55.934Z,0.90
2023-03-24T09:17:23.681Z,1.30
2023-03-24T09:19:51.388Z,0.80
2023-03-24T09:22:18.932Z,1.00
2023-03-24T09:24:49.037Z,0.98
2023-03-24T09:27:16.767Z,1.20
2023-03-24T09:29:45.911Z,1.50
2023-03-24T09:32:13.456Z,1.20
2023-03-24T09:34:41.257Z,0.90
2023-03-24T09:37:08.877Z,0.88
2023-03-24T09:39:36.502Z,1.00
2023-03-24T09:42:05.397Z,0.82
2023-03-24T09:44:35.547Z,1.60
2023-03-24T09:47:06.884Z,1.05
2023-03-24T09:49:37.521Z,0.70
2023-03-24T09:52:06.870Z,1.10
2023-03-24T09:54:39.869Z,1.25
2023-03-24T09:57:12.852Z,1.10
2023-03-24T09:59:40.979Z,0.60
2023-03-24T10:02:13.838Z,1.08
2023-03-24T10:04:41.381Z,0.85
2023-03-24T10:07:11.068Z,1.00
2023-03-24T10:09:38.610Z,1.13
2023-03-24T10:12:27.083Z,1.20
2023-03-24T10:15:06.180Z,1.30
2023-03-24T10:17:42.574Z,0.98
2023-03-24T10:20:18.260Z,0.93
2023-03-24T10:22:50.314Z,0.82
2023-03-24T10:25:22.734Z,1.05
2023-03-24T10:27:52.877Z,1.15
2023-03-24T10:30:22.263Z,0.80
2023-03-24T10:32:51.535Z,1.33
2023-03-24T10:35:22.930Z,1.25
2023-03-24T10:37:51.538Z,1.05
2023-03-24T10:40:22.240Z,1.02
2023-03-24T10:43:06.959Z,1.10
2023-03-24T10:45:37.984Z,1.30
2023-03-24T10:48:07.592Z,1.15
2023-03-24T10:50:35.939Z,1.45
2023-03-24T10:53:09.754Z,1.17
2023-03-24T10:55:39.982Z,5.95
2023-03-24T10:58:18.385Z,1.10
2023-03-24T11:03:17.994Z,0.98
2023-03-24T11:05:46.479Z,1.10
2023-03-24T11:08:26.132Z,1.05
2023-03-24T11:10:53.688Z,1.20
2023-03-24T11:13:29.255Z,1.80
2023-03-24T11:16:05.762Z,0.93
2023-03-24T11:18:34.680Z,1.30
2023-03-24T11:21:04.917Z,1.27
2023-03-24T11:23:33.386Z,1.42
2023-03-24T11:26:08.091Z,1.60
2023-03-24T11:28:39.091Z,1.30
2023-03-24T11:31:08.987Z,1.33
2023-03-24T11:33:47.275Z,1.38
2023-03-24T11:36:46.876Z,1.20
2023-03-24T11:39:19.019Z,1.10
2023-03-24T11:42:02.996Z,1.35
2023-03-24T11:44:33.666Z,2.30
2023-03-24T11:47:04.627Z,1.35
2023-03-24T11:49:36.169Z,2.17
2023-03-24T11:52:05.684Z,1.42
2023-03-24T11:54:36.130Z,1.50
2023-03-24T11:57:05.986Z,1.40
2023-03-24T11:59:38.601Z,1.63
2023-03-24T12:02:14.340Z,1.60
2023-03-24T12:05:00.710Z,1.15
2023-03-24T12:07:56.466Z,1.48
2023-03-24T12:10:29.567Z,1.10
2023-03-24T12:13:02.763Z,1.13
2023-03-24T12:15:52.059Z,0.90
2023-03-24T12:18:31.314Z,1.83
2023-03-24T12:21:04.542Z,1.52
2023-03-24T12:23:37.781Z,0.90
2023-03-24T12:26:11.847Z,1.08
2023-03-24T12:28:48.252Z,1.13
2023-03-24T12:31:34.384Z,1.42
2023-03-24T12:34:11.981Z,1.13
2023-03-24T12:36:47.741Z,1.38
2023-03-24T12:39:17.288Z,1.20
2023-03-24T12:41:57.180Z,1.17
2023-03-24T12:44:40.190Z,0.90
2023-03-24T12:47:16.805Z,1.42
2023-03-24T12:49:53.863Z,0.98
2023-03-24T12:52:33.340Z,1.15
2023-03-24T12:55:06.486Z,1.10
2023-03-24T12:57:37.519Z,1.02
2023-03-24T13:00:11.278Z,0.68
2023-03-24T13:02:40.672Z,1.23
2023-03-24T13:05:15.958Z,0.90
2023-03-24T13:07:47.519Z,1.00
2023-03-24T13:10:18.140Z,0.82
2023-03-24T13:12:50.204Z,1.50
2023-03-24T13:15:19.928Z,1.23
2023-03-24T13:17:50.810Z,1.90
2023-03-24T13:20:24.421Z,1.30
2023-03-24T13:22:53.443Z,1.02
2023-03-24T13:25:31.283Z,1.13
2023-03-24T13:28:02.094Z,1.17
2023-03-24T13:30:34.893Z,0.50
2023-03-24T13:33:09.457Z,0.40
2023-03-24T13:36:00.644Z,0.40
2023-03-24T13:38:34.965Z,0.45
2023-03-24T13:41:06.156Z,0.82
2023-03-24T13:43:35.323Z,0.40
2023-03-24T13:46:04.087Z,0.60
2023-03-24T13:48:34.485Z,0.47
2023-03-24T13:51:04.840Z,0.45
2023-03-24T13:53:39.866Z,0.75
2023-03-24T13:56:09.192Z,0.60
2023-03-24T13:58:48.775Z,0.98
2023-03-24T14:01:19.917Z,0.50
2023-03-24T14:04:28.603Z,0.75
2023-03-24T14:06:57.182Z,0.45
2023-03-24T14:09:26.294Z,0.60
2023-03-24T14:12:18.362Z,0.75
2023-03-24T14:15:20.063Z,0.90
2023-03-24T14:17:49.919Z,0.80
2023-03-24T14:20:33.696Z,0.80
2023-03-24T14:23:01.628Z,0.63
2023-03-24T14:25:30.684Z,0.70
2023-03-24T14:28:11.602Z,0.65
2023-03-24T14:30:58.723Z,0.40
2023-03-24T14:33:27.259Z,0.47
2023-03-24T14:36:01.627Z,0.50
2023-03-24T14:38:29.368Z,0.70
2023-03-24T14:40:58.885Z,0.65
2023-03-24T14:43:28.440Z,0.50
2023-03-24T14:46:01.555Z,0.52
2023-03-24T14:48:41.821Z,0.80
2023-03-24T14:51:36.501Z,0.68
2023-03-24T14:54:06.797Z,0.50
2023-03-24T14:56:37.741Z,0.55
2023-03-24T14:59:10.362Z,0.70
2023-03-24T15:01:38.978Z,0.70
2023-03-24T15:04:09.327Z,0.68
2023-03-24T15:06:46.917Z,0.50
2023-03-24T15:09:16.292Z,0.40
2023-03-24T15:11:44.505Z,0.75
2023-03-24T15:14:20.246Z,0.50
2023-03-24T15:16:53.743Z,0.85
2023-03-24T15:19:23.214Z,0.63
2023-03-24T15:21:58.707Z,0.70
2023-03-24T15:24:29.899Z,0.65
2023-03-24T15:27:15.882Z,0.65
2023-03-24T15:29:44.590Z,0.90
2023-03-24T15:32:17.930Z,0.52
2023-03-24T15:34:50.250Z,0.80
2023-03-24T15:37:24.100Z,0.43
2023-03-24T15:39:57.049Z,0.50
2023-03-24T15:42:29.647Z,0.98
2023-03-24T15:45:15.289Z,1.02
2023-03-24T15:47:42.934Z,0.55
2023-03-24T15:50:29.943Z,0.82
2023-03-24T15:53:02.522Z,0.70
2023-03-24T15:55:34.069Z,0.85
2023-03-24T15:58:04.182Z,0.95
2023-03-24T16:00:37.625Z,0.70
2023-03-24T16:03:06.796Z,0.52
2023-03-24T16:05:35.727Z,0.73
2023-03-24T16:08:06.970Z,1.20
2023-03-24T16:10:39.782Z,0.85
2023-03-24T16:13:14.653Z,0.50
2023-03-24T16:15:43.438Z,0.70
2023-03-24T16:18:15.106Z,1.17
2023-03-24T16:20:42.679Z,0.80
2023-03-24T16:23:11.953Z,0.80
2023-03-24T16:25:39.824Z,0.60
2023-03-24T16:28:08.273Z,1.10
2023-03-24T16:30:40.337Z,1.05
2023-03-24T16:33:08.225Z,1.48
2023-03-24T16:35:36.593Z,0.80
2023-03-24T16:38:04.334Z,0.90
2023-03-24T16:40:36.766Z,1.02
2023-03-24T16:45:32.470Z,1.13
2023-03-24T16:48:00.482Z,0.93
2023-03-24T16:50:32.696Z,1.58
2023-03-24T16:53:00.712Z,0.85
2023-03-24T16:55:28.316Z,1.25
2023-03-24T16:57:57.119Z,1.00
2023-03-24T17:00:24.975Z,0.70
2023-03-24T17:02:53.822Z,1.35
2023-03-24T17:05:24.335Z,1.08
2023-03-24T17:07:52.291Z,0.88
2023-03-24T17:10:20.015Z,0.88
2023-03-24T17:12:48.338Z,1.35
2023-03-24T17:15:21.538Z,1.10
2023-03-24T17:17:49.485Z,1.13
2023-03-24T17:20:17.474Z,1.05
2023-03-24T17:22:46.208Z,1.23
2023-03-24T17:25:16.078Z,1.42
2023-03-24T17:27:43.716Z,1.23
2023-03-24T17:30:16.087Z,1.58
2023-03-24T17:35:13.668Z,1.27
2023-03-24T17:37:41.811Z,1.88
2023-03-24T17:40:11.935Z,1.48
2023-03-24T17:42:41.288Z,1.60
2023-03-24T17:45:10.918Z,1.60
2023-03-24T17:47:39.006Z,1.90
2023-03-24T17:50:09.646Z,1.88
2023-03-24T17:52:37.749Z,1.73
2023-03-24T17:55:06.283Z,2.15
2023-03-24T17:57:33.916Z,2.13
2023-03-24T18:00:01.718Z,2.28
2023-03-24T18:02:35.802Z,3.13
2023-03-24T18:05:03.727Z,2.83
2023-03-24T18:07:32.869Z,2.50
2023-03-24T18:10:00.711Z,1.95
2023-03-24T18:12:28.447Z,1.30
2023-03-24T18:14:56.179Z,1.77
2023-03-24T18:17:23.805Z,1.52
2023-03-24T18:19:51.524Z,1.50
2023-03-24T18:22:18.995Z,1.83
2023-03-24T18:24:47.914Z,1.38
2023-03-24T18:27:15.684Z,1.33
2023-03-24T18:29:43.216Z,1.38
2023-03-24T18:32:11.041Z,1.80
2023-03-24T18:34:44.711Z,1.63
2023-03-24T18:37:14.017Z,1.38
2023-03-24T18:39:41.584Z,1.52
2023-03-24T18:42:11.427Z,1.60
2023-03-24T18:44:38.950Z,1.30
2023-03-24T18:47:06.491Z,1.30
2023-03-24T18:49:34.027Z,1.60
2023-03-24T18:52:01.854Z,1.65
2023-03-24T18:54:29.336Z,1.92
2023-03-24T18:56:56.888Z,1.48
2023-03-24T18:59:27.488Z,1.50
2023-03-24T19:01:55.453Z,2.00
2023-03-24T19:04:23.435Z,2.33
2023-03-24T19:06:50.965Z,2.50
2023-03-24T19:09:20.279Z,2.65
2023-03-24T19:11:47.806Z,2.70
2023-03-24T19:14:15.349Z,2.30
2023-03-24T19:16:44.227Z,2.05
2023-03-24T19:19:12.431Z,1.95
2023-03-24T19:21:40.353Z,2.00
2023-03-24T19:24:08.551Z,2.35
2023-03-24T19:26:36.084Z,2.20
2023-03-24T19:29:03.667Z,2.50
2023-03-24T19:31:31.248Z,3.17
2023-03-24T19:34:02.707Z,2.67
2023-03-24T19:36:30.378Z,2.80
2023-03-24T19:38:57.872Z,2.53
2023-03-24T19:41:26.406Z,2.50
2023-03-24T19:43:57.054Z,2.45
2023-03-24T19:46:24.655Z,2.03
2023-03-24T19:48:52.215Z,1.98
2023-03-24T19:51:21.558Z,1.80
2023-03-24T19:53:49.457Z,2.22
2023-03-24T19:56:18.152Z,2.35
2023-03-24T19:58:45.634Z,1.52
2023-03-24T20:01:13.394Z,2.28
2023-03-24T20:03:41.400Z,1.63
2023-03-24T20:06:10.050Z,1.55
2023-03-24T20:08:39.460Z,1.58
2023-03-24T20:11:08.228Z,1.85
2023-03-24T20:13:35.872Z,1.60
2023-03-24T20:16:04.140Z,2.25
2023-03-24T20:18:31.714Z,2.17
2023-03-24T20:21:01.261Z,1.13
2023-03-24T20:23:28.781Z,1.63
2023-03-24T20:26:00.990Z,1.35
2023-03-24T20:28:28.784Z,1.73
2023-03-24T20:30:59.782Z,1.67
2023-03-24T20:33:28.716Z,1.83
2023-03-24T20:35:56.863Z,2.13
2023-03-24T20:38:25.072Z,0.95
2023-03-24T20:41:00.930Z,2.10
2023-03-24T20:43:28.788Z,2.63
2023-03-24T20:45:57.072Z,2.58
2023-03-24T20:48:25.044Z,2.55
2023-03-24T20:50:52.717Z,2.42
2023-03-24T20:53:20.273Z,2.97
2023-03-24T20:55:57.742Z,1.98
2023-03-24T20:58:27.407Z,2.13
2023-03-24T21:00:55.493Z,2.58
2023-03-24T21:03:23.073Z,3.92
2023-03-24T21:05:51.044Z,2.80
2023-03-24T21:08:18.815Z,2.30
2023-03-24T21:10:46.323Z,2.47
2023-03-24T21:13:16.752Z,2.67
2023-03-24T21:15:46.154Z,2.42
2023-03-24T21:18:13.722Z,2.70
2023-03-24T21:20:42.408Z,2.70
2023-03-24T21:23:10.356Z,2.88
2023-03-24T21:25:38.033Z,2.63
2023-03-24T21:28:05.704Z,3.33
2023-03-24T21:30:33.376Z,2.88
2023-03-24T21:33:02.243Z,2.92
2023-03-24T21:35:30.140Z,2.30
2023-03-24T21:37:57.718Z,2.35
2023-03-24T21:40:26.380Z,2.88
2023-03-24T21:42:54.280Z,2.45
2023-03-24T21:45:24.065Z,2.72
2023-03-24T21:47:54.518Z,2.20
2023-03-24T21:50:23.977Z,3.28
2023-03-24T21:52:52.063Z,3.20
2023-03-24T21:55:20.725Z,2.42
2023-03-24T21:57:49.724Z,2.60
2023-03-24T22:00:19.423Z,2.72
2023-03-24T22:02:49.698Z,2.65
2023-03-24T22:05:19.302Z,3.15
2023-03-24T22:07:48.597Z,3.33
2023-03-24T22:10:22.930Z,3.10
2023-03-24T22:12:50.686Z,3.20
2023-03-24T22:15:18.454Z,2.13
2023-03-24T22:17:46.446Z,2.90
2023-03-24T22:20:14.642Z,3.03
2023-03-24T22:22:42.629Z,2.72
2023-03-24T22:25:13.577Z,2.47
2023-03-24T22:27:41.893Z,3.10
2023-03-24T22:30:17.480Z,2.35
2023-03-24T22:32:45.000Z,2.70
2023-03-24T22:35:12.638Z,3.42
2023-03-24T22:37:40.326Z,2.63
2023-03-24T22:40:09.381Z,2.30
2023-03-24T22:42:38.447Z,2.60
2023-03-24T22:45:07.051Z,3.05
2023-03-24T22:47:34.597Z,2.50
2023-03-24T22:50:02.164Z,2.72
2023-03-24T22:52:29.701Z,3.22
2023-03-24T22:54:57.210Z,3.10
2023-03-24T22:57:24.696Z,3.13
2023-03-24T22:59:53.529Z,3.08
2023-03-24T23:02:24.514Z,4.30
2023-03-24T23:04:52.330Z,3.15
2023-03-24T23:07:23.024Z,3.65
2023-03-24T23:09:53.289Z,2.97
2023-03-24T23:12:21.411Z,3.10
2023-03-24T23:14:48.950Z,3.20
2023-03-24T23:17:17.760Z,3.00
2023-03-24T23:19:45.261Z,2.90
2023-03-24T23:22:13.067Z,3.30
2023-03-24T23:24:40.596Z,3.10
2023-03-24T23:27:08.102Z,2.92
2023-03-24T23:29:35.621Z,2.70
2023-03-24T23:32:03.087Z,2.63
2023-03-24T23:34:31.911Z,2.60
2023-03-24T23:37:03.622Z,2.03
2023-03-24T23:39:31.897Z,2.40
2023-03-24T23:41:59.461Z,2.58
2023-03-24T23:44:26.939Z,2.47
2023-03-24T23:46:54.585Z,2.70
2023-03-24T23:49:22.056Z,1.58
2023-03-24T23:51:50.888Z,2.50
2023-03-24T23:54:18.443Z,3.30
2023-03-24T23:56:47.208Z,2.80
2023-03-24T23:59:15.808Z,2.60
